sensor_id;sensor_type;location;lat;lon;timestamp;pressure;altitude;pressure_sealevel;temperature;humidity
9893;BME280;4985;49.092;8.542;2023-05-20T00:00:33;99510.63;;;19.92;51.66
9893;BME280;4985;49.092;8.542;2023-05-20T00:03:00;99495.66;;;19.91;51.66
9893;BME280;4985;49.092;8.542;2023-05-20T00:05:27;99497.13;;;19.87;51.65
9893;BME280;4985;49.092;8.542;2023-05-20T00:07:53;99496.91;;;19.89;51.66
9893;BME280;4985;49.092;8.542;2023-05-20T00:10:20;99502.84;;;19.91;51.66
9893;BME280;4985;49.092;8.542;2023-05-20T00:12:46;99507.38;;;19.90;51.66
9893;BME280;4985;49.092;8.542;2023-05-20T00:15:14;99509.00;;;19.91;51.66
9893;BME280;4985;49.092;8.542;2023-05-20T00:17:41;99510.03;;;19.90;51.66
9893;BME280;4985;49.092;8.542;2023-05-20T00:20:08;99502.84;;;19.91;51.67
9893;BME280;4985;49.092;8.542;2023-05-20T00:22:35;99503.88;;;19.90;51.65
9893;BME280;4985;49.092;8.542;2023-05-20T00:25:01;99506.56;;;19.90;51.65
9893;BME280;4985;49.092;8.542;2023-05-20T00:27:28;99502.25;;;19.89;51.64
9893;BME280;4985;49.092;8.542;2023-05-20T00:29:54;99499.59;;;19.89;51.65
9893;BME280;4985;49.092;8.542;2023-05-20T00:32:23;99496.91;;;19.89;51.65
9893;BME280;4985;49.092;8.542;2023-05-20T00:34:55;99500.63;;;19.88;51.65
9893;BME280;4985;49.092;8.542;2023-05-20T00:37:22;99493.41;;;19.88;51.64
9893;BME280;4985;49.092;8.542;2023-05-20T00:39:48;99489.94;;;19.88;51.65
9893;BME280;4985;49.092;8.542;2023-05-20T00:42:19;99489.94;;;19.88;51.65
9893;BME280;4985;49.092;8.542;2023-05-20T00:44:45;99484.59;;;19.88;51.66
9893;BME280;4985;49.092;8.542;2023-05-20T00:47:12;99481.31;;;19.86;51.66
9893;BME280;4985;49.092;8.542;2023-05-20T00:49:40;99474.13;;;19.86;51.66
9893;BME280;4985;49.092;8.542;2023-05-20T00:52:07;99485.63;;;19.87;51.66
9893;BME280;4985;49.092;8.542;2023-05-20T00:54:34;99484.00;;;19.86;51.65
9893;BME280;4985;49.092;8.542;2023-05-20T00:57:01;99474.13;;;19.86;51.67
9893;BME280;4985;49.092;8.542;2023-05-20T00:59:28;99481.31;;;19.86;51.66
9893;BME280;4985;49.092;8.542;2023-05-20T01:01:55;99483.19;;;19.85;51.66
9893;BME280;4985;49.092;8.542;2023-05-20T01:04:25;99485.84;;;19.85;51.66
9893;BME280;4985;49.092;8.542;2023-05-20T01:06:53;99487.69;;;19.85;51.65
9893;BME280;4985;49.092;8.542;2023-05-20T01:09:21;99484.22;;;19.84;51.66
9893;BME280;4985;49.092;8.542;2023-05-20T01:11:52;99487.69;;;19.85;51.65
9893;BME280;4985;49.092;8.542;2023-05-20T01:14:22;99488.75;;;19.84;51.65
9893;BME280;4985;49.092;8.542;2023-05-20T01:16:51;99485.25;;;19.83;51.66
9893;BME280;4985;49.092;8.542;2023-05-20T01:19:25;99481.78;;;19.83;51.66
9893;BME280;4985;49.092;8.542;2023-05-20T01:21:55;99481.78;;;19.83;51.67
9893;BME280;4985;49.092;8.542;2023-05-20T01:24:24;99482.78;;;19.82;51.65
9893;BME280;4985;49.092;8.542;2023-05-20T01:26:51;99477.44;;;19.82;51.65
9893;BME280;4985;49.092;8.542;2023-05-20T01:29:18;99480.09;;;19.82;51.65
9893;BME280;4985;49.092;8.542;2023-05-20T01:31:46;99482.78;;;19.82;51.65
9893;BME280;4985;49.092;8.542;2023-05-20T01:34:13;99477.44;;;19.82;51.64
9893;BME280;4985;49.092;8.542;2023-05-20T01:36:41;99481.97;;;19.81;51.64
9893;BME280;4985;49.092;8.542;2023-05-20T01:39:09;99487.31;;;19.81;51.65
9893;BME280;4985;49.092;8.542;2023-05-20T01:41:37;99487.53;;;19.80;51.66
9893;BME280;4985;49.092;8.542;2023-05-20T01:44:04;99476.84;;;19.80;51.67
9893;BME280;4985;49.092;8.542;2023-05-20T01:46:32;99477.88;;;19.78;51.68
9893;BME280;4985;49.092;8.542;2023-05-20T01:48:58;99471.72;;;19.78;51.68
9893;BME280;4985;49.092;8.542;2023-05-20T01:51:25;99470.91;;;19.77;51.69
9893;BME280;4985;49.092;8.542;2023-05-20T01:53:52;99474.25;;;19.73;51.69
9893;BME280;4985;49.092;8.542;2023-05-20T01:56:18;99471.94;;;19.76;51.71
9893;BME280;4985;49.092;8.542;2023-05-20T01:58:47;99473.78;;;19.76;51.72
9893;BME280;4985;49.092;8.542;2023-05-20T02:01:14;99472.97;;;19.75;51.73
9893;BME280;4985;49.092;8.542;2023-05-20T02:03:40;99470.53;;;19.74;51.71
9893;BME280;4985;49.092;8.542;2023-05-20T02:06:07;99471.34;;;19.74;51.73
9893;BME280;4985;49.092;8.542;2023-05-20T02:08:33;99471.34;;;19.74;51.73
9893;BME280;4985;49.092;8.542;2023-05-20T02:11:00;99455.31;;;19.74;51.73
9893;BME280;4985;49.092;8.542;2023-05-20T02:13:26;99464.38;;;19.73;51.74
9893;BME280;4985;49.092;8.542;2023-05-20T02:15:54;99453.69;;;19.73;51.74
9893;BME280;4985;49.092;8.542;2023-05-20T02:18:21;99464.38;;;19.73;51.73
9893;BME280;4985;49.092;8.542;2023-05-20T02:20:50;99447.53;;;19.73;51.75
9893;BME280;4985;49.092;8.542;2023-05-20T02:23:17;99453.09;;;19.71;51.74
9893;BME280;4985;49.092;8.542;2023-05-20T02:25:44;99451.00;;;19.73;51.74
9893;BME280;4985;49.092;8.542;2023-05-20T02:28:11;99445.09;;;19.71;51.75
9893;BME280;4985;49.092;8.542;2023-05-20T02:30:38;99439.75;;;19.71;51.75
9893;BME280;4985;49.092;8.542;2023-05-20T02:33:06;99428.66;;;19.68;51.75
9893;BME280;4985;49.092;8.542;2023-05-20T02:35:33;99437.06;;;19.71;51.76
9893;BME280;4985;49.092;8.542;2023-05-20T02:38:00;99427.41;;;19.70;51.76
9893;BME280;4985;49.092;8.542;2023-05-20T02:40:27;99431.91;;;19.70;51.76
9893;BME280;4985;49.092;8.542;2023-05-20T02:42:53;99424.94;;;19.69;51.76
9893;BME280;4985;49.092;8.542;2023-05-20T02:45:20;99425.75;;;19.69;51.76
9893;BME280;4985;49.092;8.542;2023-05-20T02:47:46;99418.78;;;19.68;51.76
9893;BME280;4985;49.092;8.542;2023-05-20T02:50:14;99424.94;;;19.69;51.77
9893;BME280;4985;49.092;8.542;2023-05-20T02:52:41;99422.28;;;19.69;51.77
9893;BME280;4985;49.092;8.542;2023-05-20T02:55:08;99420.66;;;19.68;51.77
9893;BME280;4985;49.092;8.542;2023-05-20T02:57:34;99431.31;;;19.68;51.77
9893;BME280;4985;49.092;8.542;2023-05-20T03:00:03;99422.50;;;19.67;51.77
9893;BME280;4985;49.092;8.542;2023-05-20T03:02:30;99412.84;;;19.66;51.77
9893;BME280;4985;49.092;8.542;2023-05-20T03:04:56;99421.69;;;19.67;51.78
9893;BME280;4985;49.092;8.542;2023-05-20T03:07:24;99420.88;;;19.66;51.77
9893;BME280;4985;49.092;8.542;2023-05-20T03:09:51;99411.22;;;19.65;51.78
9893;BME280;4985;49.092;8.542;2023-05-20T03:12:18;99415.75;;;19.65;51.78
9893;BME280;4985;49.092;8.542;2023-05-20T03:14:44;99416.41;;;19.60;51.79
9893;BME280;4985;49.092;8.542;2023-05-20T03:17:11;99411.44;;;19.64;51.79
9893;BME280;4985;49.092;8.542;2023-05-20T03:19:37;99425.62;;;19.64;51.79
9893;BME280;4985;49.092;8.542;2023-05-20T03:22:04;99421.31;;;19.63;51.79
9893;BME280;4985;49.092;8.542;2023-05-20T03:24:32;99428.28;;;19.64;51.79
9893;BME280;4985;49.092;8.542;2023-05-20T03:26:59;99423.97;;;19.63;51.80
9893;BME280;4985;49.092;8.542;2023-05-20T03:29:26;99417.81;;;19.63;51.81
9893;BME280;4985;49.092;8.542;2023-05-20T03:31:53;99419.69;;;19.62;51.81
9893;BME280;4985;49.092;8.542;2023-05-20T03:34:19;99425.03;;;19.62;51.82
9893;BME280;4985;49.092;8.542;2023-05-20T03:36:46;99424.19;;;19.62;51.82
9893;BME280;4985;49.092;8.542;2023-05-20T03:39:12;99428.72;;;19.61;51.83
9893;BME280;4985;49.092;8.542;2023-05-20T03:41:40;99434.06;;;19.61;51.83
9893;BME280;4985;49.092;8.542;2023-05-20T03:44:07;99433.25;;;19.61;51.84
9893;BME280;4985;49.092;8.542;2023-05-20T03:46:33;99429.13;;;19.58;51.82
9893;BME280;4985;49.092;8.542;2023-05-20T03:49:00;99432.44;;;19.60;51.84
9893;BME280;4985;49.092;8.542;2023-05-20T03:51:27;99437.78;;;19.60;51.85
9893;BME280;4985;49.092;8.542;2023-05-20T03:53:53;99443.13;;;19.60;51.84
9893;BME280;4985;49.092;8.542;2023-05-20T03:56:20;99436.13;;;19.59;51.83
9893;BME280;4985;49.092;8.542;2023-05-20T03:58:48;99440.44;;;19.60;51.86
9893;BME280;4985;49.092;8.542;2023-05-20T04:01:15;99439.81;;;19.58;51.84
9893;BME280;4985;49.092;8.542;2023-05-20T04:03:42;99445.16;;;19.58;51.85
9893;BME280;4985;49.092;8.542;2023-05-20T04:06:09;99447.03;;;19.58;51.85
9893;BME280;4985;49.092;8.542;2023-05-20T04:08:35;99444.34;;;19.58;51.85
9893;BME280;4985;49.092;8.542;2023-05-20T04:11:02;99440.88;;;19.57;51.86
9893;BME280;4985;49.092;8.542;2023-05-20T04:13:29;99448.88;;;19.57;51.87
9893;BME280;4985;49.092;8.542;2023-05-20T04:15:57;99442.72;;;19.57;51.86
9893;BME280;4985;49.092;8.542;2023-05-20T04:18:24;99440.03;;;19.57;51.87
9893;BME280;4985;49.092;8.542;2023-05-20T04:20:54;99441.91;;;19.56;51.86
9893;BME280;4985;49.092;8.542;2023-05-20T04:23:20;99447.25;;;19.56;51.86
9893;BME280;4985;49.092;8.542;2023-05-20T04:25:47;99434.94;;;19.55;51.86
9893;BME280;4985;49.092;8.542;2023-05-20T04:28:14;99435.75;;;19.56;51.86
9893;BME280;4985;49.092;8.542;2023-05-20T04:30:41;99434.09;;;19.55;51.87
9893;BME280;4985;49.092;8.542;2023-05-20T04:33:10;99437.59;;;19.55;51.88
9893;BME280;4985;49.092;8.542;2023-05-20T04:35:37;99436.75;;;19.55;51.88
9893;BME280;4985;49.092;8.542;2023-05-20T04:38:05;99433.25;;;19.54;51.88
9893;BME280;4985;49.092;8.542;2023-05-20T04:40:32;99439.41;;;19.55;51.88
9893;BME280;4985;49.092;8.542;2023-05-20T04:42:59;99432.44;;;19.54;51.89
9893;BME280;4985;49.092;8.542;2023-05-20T04:45:26;99440.47;;;19.54;51.89
9893;BME280;4985;49.092;8.542;2023-05-20T04:47:52;99438.81;;;19.53;51.90
9893;BME280;4985;49.092;8.542;2023-05-20T04:50:20;99433.25;;;19.54;51.90
9893;BME280;4985;49.092;8.542;2023-05-20T04:52:47;99430.00;;;19.52;51.91
9893;BME280;4985;49.092;8.542;2023-05-20T04:55:14;99431.03;;;19.51;51.89
9893;BME280;4985;49.092;8.542;2023-05-20T04:57:41;99430.00;;;19.52;51.91
9893;BME280;4985;49.092;8.542;2023-05-20T05:00:08;99425.69;;;19.51;51.92
9893;BME280;4985;49.092;8.542;2023-05-20T05:02:36;99423.84;;;19.52;51.90
9893;BME280;4985;49.092;8.542;2023-05-20T05:05:03;99427.31;;;19.52;51.89
9893;BME280;4985;49.092;8.542;2023-05-20T05:07:31;99420.94;;;19.53;51.89
9893;BME280;4985;49.092;8.542;2023-05-20T05:09:57;99418.28;;;19.53;51.88
9893;BME280;4985;49.092;8.542;2023-05-20T05:12:24;99419.31;;;19.52;51.87
9893;BME280;4985;49.092;8.542;2023-05-20T05:14:51;99413.97;;;19.52;51.89
9893;BME280;4985;49.092;8.542;2023-05-20T05:17:17;99422.00;;;19.52;51.90
9893;BME280;4985;49.092;8.542;2023-05-20T05:19:44;99410.50;;;19.52;51.90
9893;BME280;4985;49.092;8.542;2023-05-20T05:22:10;99413.97;;;19.52;51.91
9893;BME280;4985;49.092;8.542;2023-05-20T05:24:38;99402.47;;;19.52;51.91
9893;BME280;4985;49.092;8.542;2023-05-20T05:27:05;99405.97;;;19.52;51.92
9893;BME280;4985;49.092;8.542;2023-05-20T05:29:32;99408.63;;;19.52;51.92
9893;BME280;4985;49.092;8.542;2023-05-20T05:31:58;99405.97;;;19.52;51.91
9893;BME280;4985;49.092;8.542;2023-05-20T05:34:25;99400.63;;;19.52;51.90
9893;BME280;4985;49.092;8.542;2023-05-20T05:36:51;99408.63;;;19.52;51.92
9893;BME280;4985;49.092;8.542;2023-05-20T05:39:18;99401.66;;;19.51;51.92
9893;BME280;4985;49.092;8.542;2023-05-20T05:41:46;99400.03;;;19.50;51.92
9893;BME280;4985;49.092;8.542;2023-05-20T05:44:13;99399.22;;;19.49;51.95
9893;BME280;4985;49.092;8.542;2023-05-20T05:46:39;99400.03;;;19.50;51.96
9893;BME280;4985;49.092;8.542;2023-05-20T05:49:06;99397.38;;;19.50;51.97
9893;BME280;4985;49.092;8.542;2023-05-20T05:51:32;99395.50;;;19.51;51.97
9893;BME280;4985;49.092;8.542;2023-05-20T05:53:59;99401.88;;;19.49;51.99
9893;BME280;4985;49.092;8.542;2023-05-20T05:56:25;99395.72;;;19.49;52.01
9893;BME280;4985;49.092;8.542;2023-05-20T05:58:53;99402.69;;;19.50;52.02
9893;BME280;4985;49.092;8.542;2023-05-20T06:01:20;99399.22;;;19.49;52.01
9893;BME280;4985;49.092;8.542;2023-05-20T06:03:46;99400.03;;;19.50;52.00
9893;BME280;4985;49.092;8.542;2023-05-20T06:06:13;99391.22;;;19.49;52.00
9893;BME280;4985;49.092;8.542;2023-05-20T06:08:40;99390.16;;;19.51;52.00
9893;BME280;4985;49.092;8.542;2023-05-20T06:11:07;99389.34;;;19.50;52.00
9893;BME280;4985;49.092;8.542;2023-05-20T06:13:34;99395.50;;;19.51;52.01
9893;BME280;4985;49.092;8.542;2023-05-20T06:16:02;99390.16;;;19.51;52.00
9893;BME280;4985;49.092;8.542;2023-05-20T06:18:29;99398.19;;;19.51;52.01
9893;BME280;4985;49.092;8.542;2023-05-20T06:20:56;99397.38;;;19.50;52.03
9893;BME280;4985;49.092;8.542;2023-05-20T06:23:22;99393.88;;;19.49;52.02
9893;BME280;4985;49.092;8.542;2023-05-20T06:25:49;99380.12;;;19.46;52.04
9893;BME280;4985;49.092;8.542;2023-05-20T06:28:16;99380.75;;;19.48;52.05
9893;BME280;4985;49.092;8.542;2023-05-20T06:30:43;99381.34;;;19.50;52.05
9893;BME280;4985;49.092;8.542;2023-05-20T06:33:11;99384.03;;;19.50;52.05
9893;BME280;4985;49.092;8.542;2023-05-20T06:35:38;99384.03;;;19.50;52.05
9893;BME280;4985;49.092;8.542;2023-05-20T06:38:04;99376.00;;;19.50;52.06
9893;BME280;4985;49.092;8.542;2023-05-20T06:40:31;99377.63;;;19.51;52.04
9893;BME280;4985;49.092;8.542;2023-05-20T06:42:58;99374.16;;;19.51;52.04
9893;BME280;4985;49.092;8.542;2023-05-20T06:45:24;99374.97;;;19.51;52.04
9893;BME280;4985;49.092;8.542;2023-05-20T06:47:51;99379.28;;;19.52;52.05
9893;BME280;4985;49.092;8.542;2023-05-20T06:50:19;99375.78;;;19.52;52.03
9893;BME280;4985;49.092;8.542;2023-05-20T06:52:46;99376.81;;;19.51;52.03
9893;BME280;4985;49.092;8.542;2023-05-20T06:55:13;99371.25;;;19.52;52.04
9893;BME280;4985;49.092;8.542;2023-05-20T06:57:39;99370.44;;;19.52;52.05
9893;BME280;4985;49.092;8.542;2023-05-20T07:00:07;99365.91;;;19.52;52.05
9893;BME280;4985;49.092;8.542;2023-05-20T07:02:34;99369.63;;;19.51;52.06
9893;BME280;4985;49.092;8.542;2023-05-20T07:05:01;99362.66;;;19.50;52.04
9893;BME280;4985;49.092;8.542;2023-05-20T07:07:28;99362.22;;;19.53;52.04
9893;BME280;4985;49.092;8.542;2023-05-20T07:09:56;99356.88;;;19.53;52.03
9893;BME280;4985;49.092;8.542;2023-05-20T07:12:22;99352.34;;;19.54;52.01
9893;BME280;4985;49.092;8.542;2023-05-20T07:14:49;99357.69;;;19.54;52.01
9893;BME280;4985;49.092;8.542;2023-05-20T07:17:16;99358.50;;;19.54;52.02
9893;BME280;4985;49.092;8.542;2023-05-20T07:19:42;99356.88;;;19.53;52.02
9893;BME280;4985;49.092;8.542;2023-05-20T07:22:09;99355.84;;;19.54;52.03
9893;BME280;4985;49.092;8.542;2023-05-20T07:24:37;99347.81;;;19.54;52.05
9893;BME280;4985;49.092;8.542;2023-05-20T07:27:04;99352.16;;;19.55;52.00
9893;BME280;4985;49.092;8.542;2023-05-20T07:29:31;99347.63;;;19.56;51.99
9893;BME280;4985;49.092;8.542;2023-05-20T07:31:57;99348.44;;;19.56;52.01
9893;BME280;4985;49.092;8.542;2023-05-20T07:34:24;99339.63;;;19.56;52.02
9893;BME280;4985;49.092;8.542;2023-05-20T07:36:50;99333.25;;;19.57;52.03
9893;BME280;4985;49.092;8.542;2023-05-20T07:39:17;99335.09;;;19.56;52.03
9893;BME280;4985;49.092;8.542;2023-05-20T07:41:45;99340.44;;;19.56;52.03
9893;BME280;4985;49.092;8.542;2023-05-20T07:44:12;99332.19;;;19.58;52.01
9893;BME280;4985;49.092;8.542;2023-05-20T07:46:38;99333.84;;;19.59;52.00
9893;BME280;4985;49.092;8.542;2023-05-20T07:49:06;99327.69;;;19.58;52.00
9893;BME280;4985;49.092;8.542;2023-05-20T07:51:32;99329.31;;;19.59;52.01
9893;BME280;4985;49.092;8.542;2023-05-20T07:53:59;99332.19;;;19.58;52.01
9893;BME280;4985;49.092;8.542;2023-05-20T07:56:26;99333.00;;;19.58;52.02
9893;BME280;4985;49.092;8.542;2023-05-20T07:58:55;99331.16;;;19.59;52.02
9893;BME280;4985;49.092;8.542;2023-05-20T08:01:22;99321.28;;;19.59;52.03
9893;BME280;4985;49.092;8.542;2023-05-20T08:03:49;99320.47;;;19.59;52.07
9893;BME280;4985;49.092;8.542;2023-05-20T08:06:16;99317.44;;;19.55;52.08
9893;BME280;4985;49.092;8.542;2023-05-20T08:08:44;99324.81;;;19.60;52.08
9893;BME280;4985;49.092;8.542;2023-05-20T08:11:11;99315.94;;;19.59;52.08
9893;BME280;4985;49.092;8.542;2023-05-20T08:13:38;99318.62;;;19.59;52.09
9893;BME280;4985;49.092;8.542;2023-05-20T08:16:06;99320.28;;;19.60;52.08
9893;BME280;4985;49.092;8.542;2023-05-20T08:18:34;99322.97;;;19.60;52.09
9893;BME280;4985;49.092;8.542;2023-05-20T08:21:00;99306.13;;;19.60;52.10
9893;BME280;4985;49.092;8.542;2023-05-20T08:23:27;99307.75;;;19.61;52.11
9893;BME280;4985;49.092;8.542;2023-05-20T08:25:54;99305.91;;;19.61;52.10
9893;BME280;4985;49.092;8.542;2023-05-20T08:28:21;99305.09;;;19.61;52.13
9893;BME280;4985;49.092;8.542;2023-05-20T08:30:48;99308.56;;;19.61;52.15
9893;BME280;4985;49.092;8.542;2023-05-20T08:33:17;99300.56;;;19.61;52.17
9893;BME280;4985;49.092;8.542;2023-05-20T08:35:46;99298.94;;;19.60;52.20
9893;BME280;4985;49.092;8.542;2023-05-20T08:38:12;99305.09;;;19.61;52.23
9893;BME280;4985;49.092;8.542;2023-05-20T08:40:39;99298.94;;;19.60;52.23
9893;BME280;4985;49.092;8.542;2023-05-20T08:43:05;99300.56;;;19.61;52.23
9893;BME280;4985;49.092;8.542;2023-05-20T08:45:33;99300.56;;;19.61;52.24
9893;BME280;4985;49.092;8.542;2023-05-20T08:48:02;99292.53;;;19.61;52.25
9893;BME280;4985;49.092;8.542;2023-05-20T08:50:31;99289.88;;;19.61;52.27
9893;BME280;4985;49.092;8.542;2023-05-20T08:52:58;99288.25;;;19.60;52.29
9893;BME280;4985;49.092;8.542;2023-05-20T08:55:32;99291.50;;;19.62;52.31
9893;BME280;4985;49.092;8.542;2023-05-20T08:58:02;99293.13;;;19.63;52.30
9893;BME280;4985;49.092;8.542;2023-05-20T09:00:29;99296.62;;;19.64;52.32
9893;BME280;4985;49.092;8.542;2023-05-20T09:02:57;99305.44;;;19.64;52.31
9893;BME280;4985;49.092;8.542;2023-05-20T09:05:24;99300.91;;;19.65;52.31
9893;BME280;4985;49.092;8.542;2023-05-20T09:08:03;99303.59;;;19.65;52.31
9893;BME280;4985;49.092;8.542;2023-05-20T09:10:30;99302.56;;;19.66;52.33
9893;BME280;4985;49.092;8.542;2023-05-20T09:12:58;99296.41;;;19.65;52.33
9893;BME280;4985;49.092;8.542;2023-05-20T09:15:25;99298.03;;;19.66;52.34
9893;BME280;4985;49.092;8.542;2023-05-20T09:17:52;99299.06;;;19.65;52.36
9893;BME280;4985;49.092;8.542;2023-05-20T09:20:20;99298.03;;;19.66;52.38
9893;BME280;4985;49.092;8.542;2023-05-20T09:22:50;99294.31;;;19.67;52.36
9893;BME280;4985;49.092;8.542;2023-05-20T09:25:19;99303.12;;;19.68;52.37
9893;BME280;4985;49.092;8.542;2023-05-20T09:27:46;99297.56;;;19.69;52.35
9893;BME280;4985;49.092;8.542;2023-05-20T09:30:12;99300.25;;;19.69;52.35
9893;BME280;4985;49.092;8.542;2023-05-20T09:32:39;99304.53;;;19.70;52.36
9893;BME280;4985;49.092;8.542;2023-05-20T09:35:06;99295.94;;;19.68;52.36
9893;BME280;4985;49.092;8.542;2023-05-20T09:37:34;99300.84;;;19.71;52.37
9893;BME280;4985;49.092;8.542;2023-05-20T09:40:03;99300.84;;;19.71;52.35
9893;BME280;4985;49.092;8.542;2023-05-20T09:42:37;99293.44;;;19.73;52.35
9893;BME280;4985;49.092;8.542;2023-05-20T09:45:06;99286.25;;;19.74;52.33
9893;BME280;4985;49.092;8.542;2023-05-20T09:47:34;99290.75;;;19.73;52.35
9893;BME280;4985;49.092;8.542;2023-05-20T09:50:02;99292.41;;;19.74;52.37
9893;BME280;4985;49.092;8.542;2023-05-20T09:52:28;99280.66;;;19.75;52.38
9893;BME280;4985;49.092;8.542;2023-05-20T09:54:56;99282.31;;;19.76;52.35
9893;BME280;4985;49.092;8.542;2023-05-20T09:57:24;99275.09;;;19.77;52.36
9893;BME280;4985;49.092;8.542;2023-05-20T09:59:52;99282.31;;;19.76;52.37
9893;BME280;4985;49.092;8.542;2023-05-20T10:02:19;99282.31;;;19.76;52.39
9893;BME280;4985;49.092;8.542;2023-05-20T10:04:49;99283.94;;;19.77;52.41
9893;BME280;4985;49.092;8.542;2023-05-20T10:07:51;99275.09;;;19.77;52.41
9893;BME280;4985;49.092;8.542;2023-05-20T10:10:28;99272.22;;;19.78;52.45
9893;BME280;4985;49.092;8.542;2023-05-20T10:13:06;99266.06;;;19.78;52.48
9893;BME280;4985;49.092;8.542;2023-05-20T10:15:46;99256.19;;;19.78;52.50
9893;BME280;4985;49.092;8.542;2023-05-20T10:18:38;99269.09;;;19.82;52.47
9893;BME280;4985;49.092;8.542;2023-05-20T10:21:14;99246.47;;;19.84;52.42
9893;BME280;4985;49.092;8.542;2023-05-20T10:23:41;99253.44;;;19.85;52.43
9893;BME280;4985;49.092;8.542;2023-05-20T10:26:08;99256.94;;;19.86;52.42
9893;BME280;4985;49.092;8.542;2023-05-20T10:28:35;99249.50;;;19.88;52.40
9893;BME280;4985;49.092;8.542;2023-05-20T10:31:14;99244.97;;;19.88;52.40
9893;BME280;4985;49.092;8.542;2023-05-20T10:33:41;99252.16;;;19.88;52.40
9893;BME280;4985;49.092;8.542;2023-05-20T10:36:08;99254.84;;;19.88;52.42
9893;BME280;4985;49.092;8.542;2023-05-20T10:38:35;99241.50;;;19.88;52.41
9893;BME280;4985;49.092;8.542;2023-05-20T10:41:07;99236.97;;;19.88;52.43
9893;BME280;4985;49.092;8.542;2023-05-20T10:43:35;99232.44;;;19.89;52.47
9893;BME280;4985;49.092;8.542;2023-05-20T10:46:02;99230.56;;;19.89;52.48
9893;BME280;4985;49.092;8.542;2023-05-20T10:48:31;99225.00;;;19.91;52.47
9893;BME280;4985;49.092;8.542;2023-05-20T10:50:59;99232.78;;;19.92;52.46
9893;BME280;4985;49.092;8.542;2023-05-20T10:53:28;99227.25;;;19.94;52.46
9893;BME280;4985;49.092;8.542;2023-05-20T10:55:55;99230.13;;;19.92;52.48
9893;BME280;4985;49.092;8.542;2023-05-20T10:58:23;99229.09;;;19.93;52.49
9893;BME280;4985;49.092;8.542;2023-05-20T11:00:53;99223.97;;;19.92;52.48
9893;BME280;4985;49.092;8.542;2023-05-20T11:03:20;99227.25;;;19.94;52.48
9893;BME280;4985;49.092;8.542;2023-05-20T11:05:49;99219.59;;;19.97;52.46
9893;BME280;4985;49.092;8.542;2023-05-20T11:08:16;99221.44;;;19.97;52.46
9893;BME280;4985;49.092;8.542;2023-05-20T11:10:42;99216.91;;;19.97;52.46
9893;BME280;4985;49.092;8.542;2023-05-20T11:13:11;99207.84;;;19.98;52.46
9893;BME280;4985;49.092;8.542;2023-05-20T11:15:38;99214.00;;;19.99;52.48
9893;BME280;4985;49.092;8.542;2023-05-20T11:18:05;99202.28;;;20.00;52.48
9893;BME280;4985;49.092;8.542;2023-05-20T11:20:32;99198.78;;;19.99;52.51
9893;BME280;4985;49.092;8.542;2023-05-20T11:23:01;99202.28;;;20.00;52.52
9893;BME280;4985;49.092;8.542;2023-05-20T11:25:28;99200.19;;;20.02;52.52
9893;BME280;4985;49.092;8.542;2023-05-20T11:27:55;99185.78;;;20.03;52.52
9893;BME280;4985;49.092;8.542;2023-05-20T11:30:22;99188.22;;;20.04;52.49
9893;BME280;4985;49.092;8.542;2023-05-20T11:32:56;99186.16;;;20.06;52.46
9893;BME280;4985;49.092;8.542;2023-05-20T11:35:23;99184.31;;;20.07;52.46
9893;BME280;4985;49.092;8.542;2023-05-20T11:38:02;99185.94;;;20.08;52.47
9893;BME280;4985;49.092;8.542;2023-05-20T11:40:30;99174.22;;;20.09;52.48
9893;BME280;4985;49.092;8.542;2023-05-20T11:42:58;99172.56;;;20.08;52.50
9893;BME280;4985;49.092;8.542;2023-05-20T11:45:25;99168.88;;;20.09;52.52
9893;BME280;4985;49.092;8.542;2023-05-20T11:48:00;99175.84;;;20.10;52.54
9893;BME280;4985;49.092;8.542;2023-05-20T11:50:27;99181.75;;;20.12;52.54
9893;BME280;4985;49.092;8.542;2023-05-20T11:52:57;99174.56;;;20.13;52.53
9893;BME280;4985;49.092;8.542;2023-05-20T11:55:26;99176.19;;;20.14;52.54
9893;BME280;4985;49.092;8.542;2023-05-20T11:57:53;99173.28;;;20.15;52.54
9893;BME280;4985;49.092;8.542;2023-05-20T12:00:20;99167.94;;;20.15;52.54
9893;BME280;4985;49.092;8.542;2023-05-20T12:02:47;99169.59;;;20.16;52.54
9893;BME280;4985;49.092;8.542;2023-05-20T12:05:14;99172.03;;;20.18;52.53
9893;BME280;4985;49.092;8.542;2023-05-20T12:07:41;99170.19;;;20.18;52.52
9893;BME280;4985;49.092;8.542;2023-05-20T12:10:09;99170.75;;;20.20;52.49
9893;BME280;4985;49.092;8.542;2023-05-20T12:12:37;99168.09;;;20.20;52.48
9893;BME280;4985;49.092;8.542;2023-05-20T12:15:04;99161.69;;;20.21;52.46
9893;BME280;4985;49.092;8.542;2023-05-20T12:17:31;99164.38;;;20.21;52.46
9893;BME280;4985;49.092;8.542;2023-05-20T12:19:57;99159.84;;;20.22;52.48
9893;BME280;4985;49.092;8.542;2023-05-20T12:22:24;99156.13;;;20.23;52.48
9893;BME280;4985;49.092;8.542;2023-05-20T12:24:50;99161.22;;;20.24;52.49
9893;BME280;4985;49.092;8.542;2023-05-20T12:27:17;99152.16;;;20.25;52.47
9893;BME280;4985;49.092;8.542;2023-05-20T12:29:45;99149.25;;;20.27;52.46
9893;BME280;4985;49.092;8.542;2023-05-20T12:32:11;99155.22;;;20.29;52.44
9893;BME280;4985;49.092;8.542;2023-05-20T12:34:38;99152.53;;;20.29;52.43
9893;BME280;4985;49.092;8.542;2023-05-20T12:37:04;99149.06;;;20.28;52.45
9893;BME280;4985;49.092;8.542;2023-05-20T12:39:31;99151.50;;;20.30;52.48
9893;BME280;4985;49.092;8.542;2023-05-20T12:41:58;99142.66;;;20.29;52.48
9893;BME280;4985;49.092;8.542;2023-05-20T12:44:24;99145.09;;;20.31;52.50
9893;BME280;4985;49.092;8.542;2023-05-20T12:46:53;99146.72;;;20.32;52.50
9893;BME280;4985;49.092;8.542;2023-05-20T12:49:20;99147.53;;;20.32;52.48
9893;BME280;4985;49.092;8.542;2023-05-20T12:51:46;99144.62;;;20.34;52.46
9893;BME280;4985;49.092;8.542;2023-05-20T12:54:13;99145.44;;;20.34;52.46
9893;BME280;4985;49.092;8.542;2023-05-20T12:56:39;99156.94;;;20.35;52.46
9893;BME280;4985;49.092;8.542;2023-05-20T12:59:06;99159.38;;;20.36;52.45
9893;BME280;4985;49.092;8.542;2023-05-20T13:01:33;99149.50;;;20.37;52.42
9893;BME280;4985;49.092;8.542;2023-05-20T13:04:01;99145.78;;;20.38;52.41
9893;BME280;4985;49.092;8.542;2023-05-20T13:06:27;99138.63;;;20.39;52.40
9893;BME280;4985;49.092;8.542;2023-05-20T13:08:54;99140.25;;;20.40;52.37
9893;BME280;4985;49.092;8.542;2023-05-20T13:11:20;99143.72;;;20.40;52.37
9893;BME280;4985;49.092;8.542;2023-05-20T13:13:47;99134.66;;;20.41;52.36
9893;BME280;4985;49.092;8.542;2023-05-20T13:16:13;99123.75;;;20.43;52.36
9893;BME280;4985;49.092;8.542;2023-05-20T13:18:42;99127.25;;;20.43;52.37
9893;BME280;4985;49.092;8.542;2023-05-20T13:21:10;99127.25;;;20.43;52.38
9893;BME280;4985;49.092;8.542;2023-05-20T13:23:36;99129.69;;;20.45;52.39